createdAt,value
2018-10-05T00:01:49.532Z,38.07
2018-10-05T00:06:30.342Z,33.03
2018-10-05T00:11:10.481Z,38.83
2018-10-05T00:15:51.373Z,36.53
2018-10-05T00:20:33.956Z,18.73
2018-10-05T00:25:15.701Z,125.20
2018-10-05T00:29:55.917Z,25.83
2018-10-05T00:34:36.894Z,22.47
2018-10-05T00:39:16.964Z,23.47
2018-10-05T00:43:58.165Z,29.13
2018-10-05T00:48:39.858Z,47.57
2018-10-05T00:53:20.404Z,34.40
2018-10-05T00:58:00.195Z,33.00
2018-10-05T01:02:42.006Z,37.83
2018-10-05T01:07:22.401Z,34.97
2018-10-05T01:12:02.300Z,51.30
2018-10-05T01:16:42.459Z,42.83
2018-10-05T01:21:22.312Z,68.40
2018-10-05T01:26:02.499Z,33.73
2018-10-05T01:30:42.920Z,86.73
2018-10-05T01:35:23.425Z,33.23
2018-10-05T01:40:03.307Z,54.10
2018-10-05T01:44:44.049Z,35.97
2018-10-05T01:49:25.514Z,36.03
2018-10-05T01:54:09.456Z,50.03
2018-10-05T01:58:49.399Z,39.30
2018-10-05T02:03:29.622Z,25.43
2018-10-05T02:08:10.096Z,23.53
2018-10-05T02:12:52.772Z,91.00
2018-10-05T02:17:33.825Z,84.73
2018-10-05T02:22:14.404Z,47.80
2018-10-05T02:26:55.104Z,63.47
2018-10-05T02:31:36.044Z,47.83
2018-10-05T02:36:16.558Z,43.93
2018-10-05T02:40:57.027Z,64.10
2018-10-05T02:45:37.599Z,91.13
2018-10-05T02:50:18.780Z,32.13
2018-10-05T02:54:59.688Z,30.63
2018-10-05T02:59:42.348Z,36.03
2018-10-05T03:04:22.884Z,66.20
2018-10-05T03:09:04.775Z,37.13
2018-10-05T03:13:45.296Z,32.27
2018-10-05T03:18:25.513Z,19.53
2018-10-05T03:23:05.628Z,27.47
2018-10-05T03:27:45.856Z,36.10
2018-10-05T03:32:25.860Z,45.00
2018-10-05T03:37:07.356Z,32.53
2018-10-05T03:41:48.042Z,28.00
2018-10-05T03:46:29.618Z,54.10
2018-10-05T03:51:09.622Z,51.50
2018-10-05T03:55:50.693Z,48.43
2018-10-05T04:00:30.873Z,41.97
2018-10-05T04:05:11.962Z,23.97
2018-10-05T04:09:53.220Z,34.63
2018-10-05T04:14:33.540Z,29.23
2018-10-05T04:19:14.497Z,32.33
2018-10-05T04:23:55.140Z,41.90
2018-10-05T04:28:35.107Z,26.47
2018-10-05T04:33:15.272Z,85.13
2018-10-05T04:37:56.490Z,66.37
2018-10-05T04:42:36.463Z,52.00
2018-10-05T04:47:18.745Z,29.20
2018-10-05T04:51:59.316Z,26.13
2018-10-05T04:56:40.936Z,36.87
2018-10-05T05:01:20.928Z,24.53
2018-10-05T05:06:01.153Z,29.00
2018-10-05T05:10:41.488Z,29.37
2018-10-05T05:15:21.910Z,55.23
2018-10-05T05:20:03.322Z,40.27
2018-10-05T05:24:44.082Z,45.07
2018-10-05T05:29:25.105Z,34.10
2018-10-05T05:34:05.306Z,62.10
2018-10-05T05:38:45.612Z,36.93
2018-10-05T05:43:26.885Z,29.17
2018-10-05T05:48:07.982Z,27.80
2018-10-05T05:52:48.184Z,31.17
2018-10-05T05:57:29.044Z,23.20
2018-10-05T06:02:10.382Z,22.47
2018-10-05T06:06:51.783Z,21.13
2018-10-05T06:11:33.052Z,22.47
2018-10-05T06:16:14.259Z,31.33
2018-10-05T06:20:54.969Z,18.77
2018-10-05T06:25:36.220Z,16.63
2018-10-05T06:30:16.835Z,14.27
2018-10-05T06:34:57.625Z,14.00
2018-10-05T06:39:37.770Z,16.43
2018-10-05T06:44:19.494Z,16.60
2018-10-05T06:48:59.688Z,17.30
2018-10-05T06:53:41.126Z,13.20
2018-10-05T06:58:21.875Z,13.87
2018-10-05T07:03:02.429Z,11.88
2018-10-05T07:07:43.507Z,11.20
2018-10-05T07:12:23.943Z,11.25
2018-10-05T07:17:05.714Z,9.43
2018-10-05T07:21:45.997Z,11.35
2018-10-05T07:26:25.913Z,10.53
2018-10-05T07:31:06.792Z,11.50
2018-10-05T07:35:46.984Z,8.43
2018-10-05T07:40:26.847Z,9.58
2018-10-05T07:45:07.423Z,11.15
2018-10-05T07:49:48.075Z,10.98
2018-10-05T07:54:29.358Z,8.25
2018-10-05T07:59:09.457Z,10.40
2018-10-05T08:03:50.472Z,7.75
2018-10-05T08:08:30.361Z,11.40
2018-10-05T08:13:10.672Z,12.28
2018-10-05T08:17:51.255Z,17.40
2018-10-05T08:22:32.814Z,13.25
2018-10-05T08:27:12.989Z,12.98
2018-10-05T08:31:53.565Z,13.65
2018-10-05T08:36:33.413Z,17.30
2018-10-05T08:41:13.366Z,12.82
2018-10-05T08:45:53.670Z,10.15
2018-10-05T08:50:33.461Z,9.98
2018-10-05T08:55:14.563Z,10.82
2018-10-05T08:59:54.899Z,12.20
2018-10-05T09:04:35.088Z,9.35
2018-10-05T09:09:15.681Z,11.63
2018-10-05T09:13:56.991Z,9.95
2018-10-05T09:18:37.325Z,8.38
2018-10-05T09:23:17.225Z,11.50
2018-10-05T09:27:58.187Z,10.63
2018-10-05T09:32:38.744Z,10.82
2018-10-05T09:37:19.879Z,9.45
2018-10-05T09:42:02.023Z,10.28
2018-10-05T09:46:42.330Z,8.68
2018-10-05T09:51:23.336Z,9.80
2018-10-05T09:56:03.674Z,9.28
2018-10-05T10:00:48.996Z,7.87
2018-10-05T10:05:29.442Z,8.03
2018-10-05T10:10:10.089Z,11.28
2018-10-05T10:14:50.929Z,11.45
2018-10-05T10:19:30.829Z,7.65
2018-10-05T10:24:11.213Z,7.10
2018-10-05T10:28:52.029Z,8.20
2018-10-05T10:33:32.949Z,6.67
2018-10-05T10:38:13.605Z,9.43
2018-10-05T10:42:55.095Z,7.85
2018-10-05T10:47:35.143Z,10.18
2018-10-05T10:52:15.513Z,7.10
2018-10-05T10:56:57.244Z,8.08
2018-10-05T11:01:37.019Z,6.47
2018-10-05T11:06:17.236Z,5.50
2018-10-05T11:10:57.872Z,5.95
2018-10-05T11:15:37.589Z,6.83
2018-10-05T11:20:18.070Z,5.85
2018-10-05T11:24:58.338Z,5.17
2018-10-05T11:29:38.112Z,5.47
2018-10-05T11:34:18.848Z,6.00
2018-10-05T11:38:58.796Z,5.72
2018-10-05T11:43:39.470Z,5.78
2018-10-05T11:48:20.233Z,6.30
2018-10-05T11:53:01.317Z,5.58
2018-10-05T11:57:41.582Z,6.47
2018-10-05T12:02:21.440Z,4.45
2018-10-05T12:07:01.713Z,5.62
2018-10-05T12:11:41.589Z,8.75
2018-10-05T12:16:22.331Z,3.90
2018-10-05T12:21:02.305Z,7.33
2018-10-05T12:25:42.003Z,7.00
2018-10-05T12:30:21.908Z,4.30
2018-10-05T12:35:02.818Z,5.10
2018-10-05T12:39:43.095Z,5.45
2018-10-05T12:44:23.117Z,5.05
2018-10-05T12:49:03.316Z,7.12
2018-10-05T12:53:43.196Z,4.58
2018-10-05T12:58:23.160Z,4.53
2018-10-05T13:03:03.469Z,4.20
2018-10-05T13:07:43.486Z,4.25
2018-10-05T13:12:24.738Z,8.08
2018-10-05T13:17:04.573Z,6.40
2018-10-05T13:21:44.642Z,6.53
2018-10-05T13:26:25.376Z,4.85
2018-10-05T13:31:05.634Z,5.87
2018-10-05T13:35:45.305Z,4.87
2018-10-05T13:40:26.449Z,8.53
2018-10-05T13:45:07.165Z,4.00
2018-10-05T13:49:47.297Z,5.25
2018-10-05T13:54:27.116Z,4.20
2018-10-05T13:59:08.125Z,6.28
2018-10-05T14:03:49.147Z,4.40
2018-10-05T14:08:29.796Z,6.00
2018-10-05T14:13:11.789Z,5.00
2018-10-05T14:17:53.250Z,5.50
2018-10-05T14:22:33.657Z,4.03
2018-10-05T14:27:14.081Z,4.35
2018-10-05T14:31:54.089Z,5.25
2018-10-05T14:36:35.761Z,6.12
2018-10-05T14:41:16.740Z,4.75
2018-10-05T14:45:56.774Z,3.77
2018-10-05T14:50:36.976Z,5.45
2018-10-05T14:55:16.961Z,6.33
2018-10-05T14:59:57.303Z,3.90
2018-10-05T15:04:37.274Z,4.00
2018-10-05T15:09:17.168Z,4.08
2018-10-05T15:13:57.525Z,5.37
2018-10-05T15:18:37.271Z,4.25
2018-10-05T15:23:17.856Z,6.15
2018-10-05T15:27:57.888Z,5.62
2018-10-05T15:32:38.374Z,3.52
2018-10-05T15:37:19.096Z,3.90
2018-10-05T15:41:58.958Z,6.15
2018-10-05T15:47:11.664Z,4.10
2018-10-05T15:51:51.770Z,4.80
2018-10-05T15:56:31.923Z,4.10
2018-10-05T16:01:12.435Z,19.02
2018-10-05T16:05:53.054Z,44.38
2018-10-05T16:10:33.982Z,43.25
2018-10-05T16:15:14.182Z,52.33
2018-10-05T16:19:54.937Z,294.32
2018-10-05T16:24:43.909Z,53.48
2018-10-05T16:29:23.793Z,54.60
2018-10-05T16:34:03.878Z,23.80
2018-10-05T16:38:45.563Z,26.77
2018-10-05T16:43:26.574Z,19.57
2018-10-05T16:48:06.654Z,21.20
2018-10-05T16:52:46.388Z,33.88
2018-10-05T16:57:26.953Z,27.55
2018-10-05T17:02:07.098Z,26.90
2018-10-05T17:06:47.003Z,19.25
2018-10-05T17:11:27.073Z,23.42
2018-10-05T17:16:06.989Z,49.85
2018-10-05T17:20:48.341Z,32.60
2018-10-05T17:25:28.778Z,41.58
2018-10-05T17:30:08.781Z,26.27
2018-10-05T17:34:48.898Z,26.07
2018-10-05T17:39:29.578Z,32.40
2018-10-05T17:44:09.557Z,30.00
2018-10-05T17:48:49.548Z,23.67
2018-10-05T17:53:30.010Z,15.30
2018-10-05T17:58:10.237Z,30.82
2018-10-05T18:02:50.104Z,24.60
2018-10-05T18:07:31.317Z,31.70
2018-10-05T18:12:11.615Z,33.38
2018-10-05T18:16:51.732Z,46.83
2018-10-05T18:21:32.150Z,25.40
2018-10-05T18:26:12.680Z,29.35
2018-10-05T18:30:53.061Z,35.45
2018-10-05T18:35:33.693Z,60.30
2018-10-05T18:40:13.758Z,60.35
2018-10-05T18:44:53.858Z,116.90
2018-10-05T18:49:33.789Z,147.05
2018-10-05T18:54:13.817Z,153.53
2018-10-05T18:58:54.037Z,198.55
2018-10-05T19:03:33.937Z,127.70
2018-10-05T19:08:14.318Z,139.15
2018-10-05T19:12:54.650Z,127.97
2018-10-05T19:17:35.740Z,124.35
2018-10-05T19:22:16.745Z,137.22
2018-10-05T19:26:58.220Z,114.20
2018-10-05T19:31:40.330Z,128.60
2018-10-05T19:36:22.577Z,94.60
2018-10-05T19:41:07.008Z,125.62
2018-10-05T19:45:48.625Z,85.07
2018-10-05T19:50:30.388Z,69.60
2018-10-05T19:55:11.133Z,136.40
2018-10-05T19:59:52.214Z,98.25
2018-10-05T20:04:32.637Z,123.38
2018-10-05T20:09:12.634Z,117.37
2018-10-05T20:13:53.301Z,75.25
2018-10-05T20:18:33.309Z,82.40
2018-10-05T20:23:13.462Z,125.12
2018-10-05T20:27:55.674Z,98.25
2018-10-05T20:32:37.686Z,46.02
2018-10-05T20:37:18.466Z,46.02
2018-10-05T20:41:59.558Z,40.80
2018-10-05T20:46:40.341Z,32.40
2018-10-05T20:51:20.885Z,29.02
2018-10-05T20:56:01.546Z,28.70
2018-10-05T21:00:41.644Z,27.02
2018-10-05T21:05:21.869Z,25.97
2018-10-05T21:10:01.824Z,28.47
2018-10-05T21:14:41.676Z,29.23
2018-10-05T21:19:22.089Z,28.27
2018-10-05T21:24:02.913Z,23.90
2018-10-05T21:28:43.237Z,21.52
2018-10-05T21:33:23.643Z,21.15
2018-10-05T21:38:03.897Z,24.12
2018-10-05T21:42:44.237Z,21.20
2018-10-05T21:47:24.086Z,18.48
2018-10-05T21:52:03.987Z,18.45
2018-10-05T21:56:44.136Z,20.92
2018-10-05T22:01:25.025Z,27.13
2018-10-05T22:06:06.342Z,19.65
2018-10-05T22:10:47.065Z,21.73
2018-10-05T22:15:27.289Z,23.30
2018-10-05T22:20:08.339Z,22.20
2018-10-05T22:24:48.150Z,18.30
2018-10-05T22:29:32.097Z,18.32
2018-10-05T22:34:12.713Z,11.45
2018-10-05T22:38:55.004Z,13.70
2018-10-05T22:43:35.660Z,12.95
2018-10-05T22:48:17.666Z,15.13
2018-10-05T22:52:58.559Z,15.88
2018-10-05T22:57:38.481Z,12.60
2018-10-05T23:02:19.269Z,12.25
2018-10-05T23:07:00.289Z,13.23
2018-10-05T23:11:40.679Z,10.60
2018-10-05T23:16:20.523Z,12.07
2018-10-05T23:21:00.545Z,12.37
2018-10-05T23:25:41.492Z,22.40
2018-10-05T23:30:21.925Z,47.83
2018-10-05T23:35:01.529Z,39.33
2018-10-05T23:39:41.364Z,22.33
2018-10-05T23:44:21.313Z,21.23
2018-10-05T23:49:01.166Z,44.53
2018-10-05T23:53:41.640Z,11.03
2018-10-05T23:58:21.592Z,11.70
